Time;durP1;ratioP1;P1;durP2;ratioP2;P2;SDS_P1;SDS_P2;PMS_P1;PMS_P2;Temp;Humidity;BMP_temperature;BMP_pressure;BME280_temperature;BME280_humidity;BME280_pressure;Samples;Min_cycle;Max_cycle;Signal;HPM_P1;HPM_P2
2024/01/29 00:02:18;;;;;;;3.03;1.48;;;;;;;13.65;26.88;98099.50;5052677;28;20041;-28
2024/01/29 00:04:44;;;;;;;2.63;1.40;;;;;;;13.40;26.87;98102.47;5053021;28;20173;-28
2024/01/29 00:07:09;;;;;;;2.88;1.55;;;;;;;13.44;27.05;98097.00;5053097;28;20024;-28
2024/01/29 00:09:35;;;;;;;3.20;1.27;;;;;;;13.44;27.08;98097.00;5053382;28;20017;-28
2024/01/29 00:12:01;;;;;;;2.97;1.27;;;;;;;13.36;26.92;98095.50;5052846;28;20455;-27
2024/01/29 00:14:27;;;;;;;2.60;1.27;;;;;;;13.25;27.56;98096.38;5052664;28;20023;-27
2024/01/29 00:16:52;;;;;;;2.72;1.50;;;;;;;13.44;27.22;98091.56;5053786;28;20025;-27
2024/01/29 00:19:18;;;;;;;2.85;1.45;;;;;;;13.29;27.04;98088.97;5056564;28;20052;-28
2024/01/29 00:21:43;;;;;;;3.88;1.65;;;;;;;13.50;27.19;98082.53;5038592;28;20388;-28
2024/01/29 00:24:09;;;;;;;7.25;1.98;;;;;;;13.43;27.11;98076.38;5056810;28;20017;-28
2024/01/29 00:26:34;;;;;;;5.25;1.80;;;;;;;13.41;26.89;98079.50;5056671;28;20437;-27
2024/01/29 00:28:59;;;;;;;2.55;1.60;;;;;;;13.36;27.09;98076.44;5056433;28;20468;-28
2024/01/29 00:31:25;;;;;;;3.80;1.60;;;;;;;13.20;27.15;98080.50;5056137;28;20449;-27
2024/01/29 00:33:52;;;;;;;3.45;1.13;;;;;;;13.32;26.85;98079.22;5056318;28;20426;-28
2024/01/29 00:36:17;;;;;;;1.88;1.00;;;;;;;13.40;26.45;98069.78;5063473;28;20017;-29
2024/01/29 00:38:43;;;;;;;3.15;0.70;;;;;;;13.23;26.56;98078.88;5061713;28;20075;-28
2024/01/29 00:41:08;;;;;;;1.35;0.80;;;;;;;13.16;26.56;98078.97;5058538;28;20380;-28
2024/01/29 00:43:34;;;;;;;1.58;0.73;;;;;;;13.30;26.12;98071.44;5062994;28;20033;-27
2024/01/29 00:45:59;;;;;;;1.00;0.70;;;;;;;13.33;26.77;98075.31;5056292;28;20111;-27
2024/01/29 00:48:25;;;;;;;1.10;0.80;;;;;;;13.30;26.20;98074.16;5056553;28;20029;-27
2024/01/29 00:50:55;;;;;;;1.50;0.70;;;;;;;13.35;26.51;98066.75;5055994;28;20473;-27
2024/01/29 00:53:21;;;;;;;1.58;0.80;;;;;;;13.39;26.49;98081.84;5056276;28;20057;-27
2024/01/29 00:55:47;;;;;;;1.50;0.70;;;;;;;13.17;26.31;98083.25;5056322;28;20029;-27
2024/01/29 00:58:13;;;;;;;1.08;0.55;;;;;;;13.17;25.85;98084.03;5056249;28;20457;-28
2024/01/29 01:00:39;;;;;;;1.15;0.70;;;;;;;13.22;25.82;98077.38;5055931;28;20028;-27
2024/01/29 01:03:07;;;;;;;1.23;0.63;;;;;;;13.15;26.38;98071.97;5055367;28;22527;-27
2024/01/29 01:05:33;;;;;;;0.95;0.45;;;;;;;13.22;26.18;98077.38;5055891;28;20464;-27
2024/01/29 01:08:00;;;;;;;1.00;0.60;;;;;;;13.26;26.20;98069.91;5056077;28;20052;-29
2024/01/29 01:10:26;;;;;;;1.33;0.70;;;;;;;13.32;25.78;98075.72;5055890;28;20040;-27
2024/01/29 01:12:51;;;;;;;1.13;0.70;;;;;;;13.23;25.89;98076.94;5055795;28;20060;-27
2024/01/29 01:15:17;;;;;;;1.13;0.63;;;;;;;13.43;25.16;98071.69;5037563;28;20013;-27
2024/01/29 01:17:42;;;;;;;1.38;0.70;;;;;;;13.23;25.90;98076.94;5055446;28;20021;-28
2024/01/29 01:20:10;;;;;;;1.15;0.52;;;;;;;13.26;25.93;98073.41;5055389;28;20533;-28
2024/01/29 01:22:36;;;;;;;1.20;0.55;;;;;;;13.25;26.33;98080.03;5055752;28;20028;-28
2024/01/29 01:25:01;;;;;;;1.17;0.60;;;;;;;13.19;25.21;98076.22;5055600;28;20033;-28
2024/01/29 01:27:27;;;;;;;1.02;0.55;;;;;;;13.23;25.94;98074.22;5055846;28;20017;-28
2024/01/29 01:29:53;;;;;;;0.73;0.43;;;;;;;13.31;25.01;98061.31;5054844;28;20170;-27
2024/01/29 01:32:18;;;;;;;1.00;0.50;;;;;;;13.19;25.54;98078.16;5055221;28;20028;-27
2024/01/29 01:34:44;;;;;;;0.45;0.30;;;;;;;13.24;25.65;98067.59;5055410;28;20025;-27
2024/01/29 01:37:16;;;;;;;0.73;0.47;;;;;;;13.11;25.54;98066.50;5051801;28;20033;-27
2024/01/29 01:39:41;;;;;;;1.13;0.50;;;;;;;12.85;25.85;98067.16;5055257;28;20032;-29
2024/01/29 01:42:06;;;;;;;1.00;0.60;;;;;;;13.13;25.07;98061.44;5055421;28;20480;-28
2024/01/29 01:44:32;;;;;;;2.67;0.50;;;;;;;13.23;25.72;98060.59;5062210;28;20025;-28
2024/01/29 01:46:59;;;;;;;1.80;0.47;;;;;;;13.14;25.66;98065.75;5055627;28;20025;-28
2024/01/29 01:49:24;;;;;;;1.33;0.60;;;;;;;13.13;25.54;98066.88;5054821;28;20040;-28
2024/01/29 01:51:50;;;;;;;1.25;0.40;;;;;;;13.02;25.40;98066.22;5054989;28;20025;-28
2024/01/29 01:54:17;;;;;;;1.30;0.50;;;;;;;13.14;25.66;98065.75;5054714;28;20029;-28
2024/01/29 01:56:44;;;;;;;2.25;0.63;;;;;;;13.14;25.16;98065.75;5055063;28;20510;-28
2024/01/29 01:59:11;;;;;;;1.38;0.45;;;;;;;12.86;25.74;98053.13;5036771;28;20464;-28
2024/01/29 02:01:38;;;;;;;1.00;0.50;;;;;;;13.00;25.38;98057.66;5054794;28;20392;-27
2024/01/29 02:04:04;;;;;;;1.10;0.45;;;;;;;12.90;25.42;98059.31;5055101;28;20460;-27
2024/01/29 02:06:29;;;;;;;1.05;0.47;;;;;;;12.96;25.62;98059.66;5054609;28;20029;-28
2024/01/29 02:08:55;;;;;;;0.52;0.40;;;;;;;12.92;26.06;98056.97;5054475;28;20073;-28
2024/01/29 02:11:20;;;;;;;3.25;0.40;;;;;;;13.23;25.26;98046.97;5054653;28;20013;-27
2024/01/29 02:13:46;;;;;;;1.10;0.50;;;;;;;12.93;25.82;98047.63;5054767;28;20130;-27
2024/01/29 02:16:11;;;;;;;0.95;0.40;;;;;;;13.11;25.67;98046.66;5055016;28;20104;-27
2024/01/29 02:18:37;;;;;;;0.93;0.50;;;;;;;12.78;25.58;98046.19;5054505;28;20534;-27
2024/01/29 02:21:03;;;;;;;0.90;0.50;;;;;;;12.94;25.57;98049.19;5054580;28;20063;-27
2024/01/29 02:23:28;;;;;;;0.60;0.35;;;;;;;13.05;25.13;98049.06;5054188;28;20041;-27
2024/01/29 02:25:55;;;;;;;0.90;0.50;;;;;;;12.99;25.51;98042.50;5054205;28;20154;-28
2024/01/29 02:28:23;;;;;;;0.88;0.45;;;;;;;12.99;25.14;98041.72;5054415;28;20032;-28
2024/01/29 02:30:49;;;;;;;1.15;0.50;;;;;;;12.72;25.32;98049.75;5054190;28;20025;-27
2024/01/29 02:33:14;;;;;;;0.98;0.30;;;;;;;12.94;25.19;98053.84;5043227;28;20407;-28
2024/01/29 02:35:40;;;;;;;0.55;0.30;;;;;;;12.94;25.31;98042.97;5053960;28;20029;-29
2024/01/29 02:38:05;;;;;;;1.17;0.30;;;;;;;12.75;25.78;98054.38;5053943;28;20028;-27
2024/01/29 02:40:31;;;;;;;0.95;0.40;;;;;;;12.66;25.63;98045.91;5053071;28;20476;-28
2024/01/29 02:42:56;;;;;;;1.05;0.60;;;;;;;12.76;25.96;98053.19;5053716;28;20028;-28
2024/01/29 02:45:22;;;;;;;0.68;0.45;;;;;;;12.93;24.91;98038.69;5054415;28;20024;-27
2024/01/29 02:47:47;;;;;;;0.80;0.40;;;;;;;12.65;25.84;98044.34;5054167;28;20025;-28
2024/01/29 02:50:13;;;;;;;1.10;0.52;;;;;;;12.58;25.59;98050.63;5061180;28;20021;-28
2024/01/29 02:52:38;;;;;;;0.63;0.50;;;;;;;12.86;25.50;98046.91;5053863;28;20024;-27
2024/01/29 02:55:04;;;;;;;1.48;0.40;;;;;;;12.72;25.85;98047.03;5053427;28;20508;-28
2024/01/29 02:57:30;;;;;;;0.98;0.40;;;;;;;12.97;25.69;98042.16;5054017;28;20033;-28
2024/01/29 02:59:55;;;;;;;2.05;0.40;;;;;;;12.84;25.40;98050.03;5053833;28;20028;-28
2024/01/29 03:02:21;;;;;;;0.77;0.50;;;;;;;12.78;25.35;98046.19;5060197;28;20036;-29
2024/01/29 03:04:46;;;;;;;1.10;0.30;;;;;;;12.74;25.34;98042.72;5056324;28;20024;-28
2024/01/29 03:07:12;;;;;;;1.15;0.40;;;;;;;12.72;25.79;98044.31;5058440;28;20067;-28
2024/01/29 03:09:37;;;;;;;0.90;0.52;;;;;;;12.90;25.53;98051.16;5053548;28;20021;-28
2024/01/29 03:12:03;;;;;;;0.30;0.30;;;;;;;12.80;25.49;98040.34;5053341;28;20500;-28
2024/01/29 03:14:28;;;;;;;0.80;0.45;;;;;;;12.83;25.13;98055.88;5053455;28;20013;-28
2024/01/29 03:16:54;;;;;;;1.02;0.35;;;;;;;12.85;25.11;98051.59;5053398;28;20496;-28
2024/01/29 03:19:20;;;;;;;0.85;0.40;;;;;;;12.78;25.35;98059.03;5053506;28;20421;-27
2024/01/29 03:21:46;;;;;;;0.80;0.40;;;;;;;12.91;25.41;98055.41;5053722;28;20451;-27
2024/01/29 03:24:12;;;;;;;0.93;0.50;;;;;;;12.91;24.75;98049.19;5053187;28;20100;-28
2024/01/29 03:26:38;;;;;;;1.10;0.60;;;;;;;12.81;24.93;98055.50;5053263;28;20043;-28
2024/01/29 03:29:03;;;;;;;1.17;0.40;;;;;;;12.49;25.25;98051.06;5053891;28;20472;-28
2024/01/29 03:31:29;;;;;;;1.27;0.75;;;;;;;12.54;25.18;98047.94;5053310;28;20017;-28
2024/01/29 03:33:54;;;;;;;1.00;0.57;;;;;;;12.78;25.29;98048.91;5053377;28;20074;-27
2024/01/29 03:36:20;;;;;;;1.05;0.40;;;;;;;12.69;25.26;98045.88;5053309;28;20025;-28
2024/01/29 03:38:57;;;;;;;0.70;0.43;;;;;;;12.75;25.40;98049.72;5053752;28;20350;-27
2024/01/29 03:41:23;;;;;;;0.75;0.40;;;;;;;12.66;25.49;98035.78;5053562;28;20013;-28
2024/01/29 03:43:48;;;;;;;0.68;0.40;;;;;;;12.84;25.63;98041.09;5053267;28;20056;-28
2024/01/29 03:46:14;;;;;;;0.40;0.30;;;;;;;12.84;25.55;98041.09;5053043;28;20087;-28
2024/01/29 03:48:39;;;;;;;0.75;0.45;;;;;;;12.65;25.58;98036.97;5053320;28;20032;-30
2024/01/29 03:51:05;;;;;;;1.80;0.40;;;;;;;12.79;25.25;98038.78;5053424;28;20032;-28
2024/01/29 03:53:30;;;;;;;1.00;0.35;;;;;;;12.93;25.16;98035.97;5056609;28;20722;-27
2024/01/29 03:55:56;;;;;;;0.63;0.30;;;;;;;12.73;25.45;98040.41;5057228;28;20017;-27
2024/01/29 03:58:21;;;;;;;0.73;0.40;;;;;;;12.79;25.29;98031.41;5056928;28;20526;-28
2024/01/29 04:00:47;;;;;;;1.17;0.30;;;;;;;12.76;25.96;98032.19;5064527;28;20025;-28
2024/01/29 04:03:12;;;;;;;0.98;0.50;;;;;;;12.82;25.47;98029.84;5056619;28;20396;-28
2024/01/29 04:05:38;;;;;;;0.85;0.50;;;;;;;12.84;25.04;98030.22;5057129;28;20020;-29
2024/01/29 04:08:04;;;;;;;0.63;0.45;;;;;;;12.90;25.20;98034.03;5063795;28;20050;-28
2024/01/29 04:10:29;;;;;;;0.90;0.55;;;;;;;12.88;25.63;98028.22;5056845;28;20021;-27
2024/01/29 04:12:55;;;;;;;0.32;0.25;;;;;;;12.77;25.20;98032.97;5057019;28;20353;-28
2024/01/29 04:15:20;;;;;;;0.60;0.40;;;;;;;12.68;25.63;98038.09;5056931;28;20094;-28
2024/01/29 04:17:46;;;;;;;0.30;0.30;;;;;;;12.72;25.32;98030.69;5057261;28;20029;-28
2024/01/29 04:20:11;;;;;;;0.77;0.47;;;;;;;12.74;25.73;98031.03;5060267;28;20020;-28
2024/01/29 04:22:37;;;;;;;0.80;0.40;;;;;;;12.82;25.30;98021.66;5060216;28;20021;-28
2024/01/29 04:25:04;;;;;;;4.25;0.60;;;;;;;12.74;25.80;98034.53;5056642;28;20025;-29
2024/01/29 04:27:31;;;;;;;2.33;0.50;;;;;;;12.77;25.76;98028.31;5056619;28;20024;-28
2024/01/29 04:29:56;;;;;;;1.13;0.55;;;;;;;12.78;25.42;98029.84;5057129;28;20107;-28
2024/01/29 04:32:22;;;;;;;1.20;0.40;;;;;;;12.56;25.70;98034.69;5056445;28;20099;-27
2024/01/29 04:34:47;;;;;;;1.50;0.70;;;;;;;12.52;25.80;98033.16;5063460;28;20381;-27
2024/01/29 04:37:14;;;;;;;0.30;0.30;;;;;;;12.76;25.54;98031.44;5056814;28;20067;-28
2024/01/29 04:39:39;;;;;;;0.70;0.40;;;;;;;12.86;25.27;98033.28;5056124;28;20025;-28
2024/01/29 04:42:06;;;;;;;1.42;0.70;;;;;;;12.60;25.15;98042.84;5056381;28;20029;-27
2024/01/29 04:44:31;;;;;;;0.50;0.32;;;;;;;12.69;25.33;98037.72;5055927;28;20074;-28
2024/01/29 04:46:58;;;;;;;2.90;1.33;;;;;;;12.66;25.33;98038.50;5055959;28;20107;-28
2024/01/29 04:49:24;;;;;;;8.75;3.65;;;;;;;12.40;25.83;98039.09;5056492;28;20029;-27
2024/01/29 04:51:49;;;;;;;20.92;8.55;;;;;;;12.51;25.43;98037.06;5055803;28;20047;-28
2024/01/29 04:54:15;;;;;;;23.33;9.68;;;;;;;12.56;25.45;98031.97;5038550;28;20476;-28
2024/01/29 04:56:40;;;;;;;32.63;12.13;;;;;;;12.62;25.44;98043.19;5055976;28;20032;-28
2024/01/29 04:59:06;;;;;;;28.15;9.80;;;;;;;12.65;25.29;98034.22;5055983;28;20399;-29
2024/01/29 05:01:31;;;;;;;18.08;8.45;;;;;;;12.50;25.45;98033.56;5055697;28;20048;-28
2024/01/29 05:03:57;;;;;;;18.92;8.35;;;;;;;12.59;25.50;98039.34;5054537;28;20488;-28
2024/01/29 05:06:23;;;;;;;12.77;5.78;;;;;;;12.52;25.45;98036.66;5055953;28;20016;-28
2024/01/29 05:08:48;;;;;;;14.23;5.97;;;;;;;12.65;24.59;98034.22;5056309;28;20020;-28
2024/01/29 05:11:14;;;;;;;15.93;7.00;;;;;;;12.70;25.18;98033.03;5055625;28;20384;-28
2024/01/29 05:13:41;;;;;;;16.40;7.43;;;;;;;12.52;25.41;98044.06;5056086;28;20040;-28
2024/01/29 05:16:06;;;;;;;13.73;6.55;;;;;;;12.62;25.11;98040.47;5055342;28;20020;-28
2024/01/29 05:18:33;;;;;;;9.43;4.30;;;;;;;12.56;24.95;98042.09;5055704;28;20017;-28
2024/01/29 05:20:58;;;;;;;9.52;4.82;;;;;;;12.61;25.41;98040.91;5055379;28;20039;-28
2024/01/29 05:23:24;;;;;;;7.10;3.53;;;;;;;12.56;25.46;98045.59;5062551;28;20112;-28
2024/01/29 05:25:49;;;;;;;10.00;3.67;;;;;;;12.35;25.46;98045.75;5055987;28;20067;-28
2024/01/29 05:28:15;;;;;;;7.63;3.67;;;;;;;12.62;25.43;98042.41;5055533;28;20032;-28
2024/01/29 05:30:40;;;;;;;7.32;2.70;;;;;;;12.40;25.49;98034.41;5055655;28;20052;-28
2024/01/29 05:33:06;;;;;;;4.88;2.47;;;;;;;12.57;25.17;98035.47;5055419;28;20024;-28
2024/01/29 05:35:31;;;;;;;5.28;1.88;;;;;;;12.52;25.27;98033.94;5055057;28;20052;-28
2024/01/29 05:37:56;;;;;;;3.17;1.42;;;;;;;12.56;25.17;98040.13;5055158;28;20044;-28
2024/01/29 05:40:22;;;;;;;2.35;1.10;;;;;;;12.68;24.73;98043.56;5062452;28;20067;-28
2024/01/29 05:42:52;;;;;;;1.20;0.70;;;;;;;12.41;24.94;98049.56;5055573;28;20017;-28
2024/01/29 05:45:18;;;;;;;1.05;0.75;;;;;;;12.38;24.99;98036.75;5055293;28;20029;-28
2024/01/29 05:47:44;;;;;;;0.90;0.52;;;;;;;12.46;25.14;98038.28;5055116;28;20358;-28
2024/01/29 05:50:09;;;;;;;0.60;0.32;;;;;;;12.33;25.17;98034.47;5054837;28;20028;-28
2024/01/29 05:52:35;;;;;;;1.48;0.70;;;;;;;12.36;25.17;98039.13;5055027;28;20013;-29
2024/01/29 05:55:01;;;;;;;0.95;0.45;;;;;;;12.47;25.02;98034.38;5055505;28;20033;-30
2024/01/29 05:57:29;;;;;;;0.88;0.50;;;;;;;12.29;25.12;98047.31;5055041;28;20074;-28
2024/01/29 05:59:55;;;;;;;1.55;0.50;;;;;;;12.41;24.76;98046.84;5054732;28;20472;-28
2024/01/29 06:02:20;;;;;;;1.20;0.45;;;;;;;12.44;24.98;98040.63;5054422;28;20079;-28
2024/01/29 06:04:46;;;;;;;0.47;0.30;;;;;;;12.54;25.33;98042.47;5061550;28;20029;-28
2024/01/29 06:07:12;;;;;;;0.63;0.40;;;;;;;12.55;25.40;98044.03;5054779;28;20050;-28
2024/01/29 06:09:37;;;;;;;0.68;0.40;;;;;;;12.43;25.18;98047.22;5054577;28;20395;-28
2024/01/29 06:12:03;;;;;;;1.00;0.45;;;;;;;12.31;25.24;98053.13;5054754;28;20025;-28
2024/01/29 06:14:28;;;;;;;0.82;0.40;;;;;;;12.35;24.98;98053.91;5054797;28;20021;-28
2024/01/29 06:16:57;;;;;;;1.25;0.40;;;;;;;12.42;25.19;98058.50;5054348;28;20037;-28
2024/01/29 06:19:23;;;;;;;0.68;0.45;;;;;;;12.31;25.00;98061.31;5054456;28;20017;-28
2024/01/29 06:21:49;;;;;;;0.85;0.43;;;;;;;12.35;24.64;98056.63;5054499;28;20025;-28
2024/01/29 06:24:15;;;;;;;0.52;0.40;;;;;;;12.41;25.05;98052.28;5054836;28;20031;-28
2024/01/29 06:26:41;;;;;;;0.82;0.43;;;;;;;12.40;24.58;98061.63;5054202;28;20017;-28
2024/01/29 06:29:06;;;;;;;0.73;0.40;;;;;;;12.62;24.70;98056.03;5054977;28;20029;-28
2024/01/29 06:31:32;;;;;;;0.70;0.50;;;;;;;12.56;24.69;98051.03;5054440;28;20036;-28
2024/01/29 06:33:57;;;;;;;1.13;0.40;;;;;;;12.56;24.79;98053.75;5036198;28;20522;-28
2024/01/29 06:36:23;;;;;;;0.90;0.50;;;;;;;12.21;24.98;98056.69;5054228;28;20028;-28
2024/01/29 06:38:49;;;;;;;0.95;0.60;;;;;;;12.31;25.04;98060.53;5053906;28;20045;-28
2024/01/29 06:41:25;;;;;;;1.05;0.50;;;;;;;12.54;24.53;98064.25;5054137;28;20039;-28
2024/01/29 06:43:52;;;;;;;1.45;0.38;;;;;;;12.38;24.87;98072.13;5059607;28;20472;-29
2024/01/29 06:46:18;;;;;;;1.05;0.60;;;;;;;12.37;24.90;98070.56;5056127;28;20071;-29
2024/01/29 06:48:44;;;;;;;0.98;0.50;;;;;;;12.43;25.22;98071.72;5060011;28;20370;-28
2024/01/29 06:51:09;;;;;;;1.20;0.63;;;;;;;12.38;25.60;98077.56;5053498;28;20021;-28
2024/01/29 06:53:36;;;;;;;1.60;0.60;;;;;;;12.52;25.23;98088.38;5053792;28;20067;-28
2024/01/29 06:56:04;;;;;;;2.10;0.75;;;;;;;12.47;25.42;98080.66;5053691;28;20035;-29
2024/01/29 06:58:30;;;;;;;1.30;0.73;;;;;;;12.37;25.84;98080.69;5054231;28;20025;-29
2024/01/29 07:00:56;;;;;;;2.38;0.90;;;;;;;12.51;25.77;98080.59;5053900;28;20025;-29
2024/01/29 07:03:21;;;;;;;2.45;1.20;;;;;;;12.47;25.72;98085.31;5053253;28;20045;-28
2024/01/29 07:05:50;;;;;;;1.63;0.90;;;;;;;12.44;25.71;98080.66;5053742;28;20057;-28
2024/01/29 07:08:16;;;;;;;1.55;0.80;;;;;;;12.38;25.96;98088.44;5053438;28;20481;-28
2024/01/29 07:10:42;;;;;;;1.25;0.60;;;;;;;12.62;25.31;98085.97;5053925;28;20029;-29
2024/01/29 07:13:07;;;;;;;1.30;0.60;;;;;;;12.41;25.75;98084.94;5053716;28;20025;-27
2024/01/29 07:15:33;;;;;;;1.10;0.40;;;;;;;12.31;25.72;98099.38;5053283;28;20017;-28
2024/01/29 07:17:59;;;;;;;2.40;0.50;;;;;;;12.56;25.45;98082.91;5054224;28;20479;-28
2024/01/29 07:20:24;;;;;;;1.05;0.60;;;;;;;12.47;25.38;98083.38;5053369;28;20020;-28
2024/01/29 07:22:51;;;;;;;2.72;0.95;;;;;;;12.49;25.85;98093.81;5053452;28;20060;-28
2024/01/29 07:25:17;;;;;;;1.38;0.50;;;;;;;12.53;25.42;98100.03;5053336;28;20021;-28
2024/01/29 07:27:42;;;;;;;2.38;0.55;;;;;;;12.42;25.66;98100.09;5052664;28;20024;-28
2024/01/29 07:30:08;;;;;;;1.67;0.65;;;;;;;12.51;25.38;98100.44;5053941;28;20036;-28
2024/01/29 07:32:33;;;;;;;1.42;0.70;;;;;;;12.50;25.56;98096.16;5053819;28;20021;-28
2024/01/29 07:35:00;;;;;;;0.88;0.55;;;;;;;12.36;25.66;98109.88;5053417;28;20029;-28
2024/01/29 07:37:28;;;;;;;1.40;0.80;;;;;;;12.48;25.48;98105.91;5053090;28;20029;-29
2024/01/29 07:39:54;;;;;;;0.82;0.60;;;;;;;12.64;25.02;98105.41;5053134;28;20036;-28
2024/01/29 07:42:19;;;;;;;1.00;0.60;;;;;;;12.72;25.23;98106.91;5052943;28;20054;-28
2024/01/29 07:44:45;;;;;;;1.75;0.63;;;;;;;12.54;25.59;98105.06;5053185;28;20053;-29
2024/01/29 07:47:11;;;;;;;2.00;0.60;;;;;;;12.74;25.89;98110.00;5037908;28;20032;-27
2024/01/29 07:49:36;;;;;;;0.85;0.43;;;;;;;12.55;25.94;98103.13;5053414;28;20017;-27
2024/01/29 07:52:02;;;;;;;0.70;0.50;;;;;;;12.51;25.77;98115.97;5053258;28;20025;-28
2024/01/29 07:54:28;;;;;;;1.65;0.60;;;;;;;12.48;25.78;98108.63;5053054;28;20047;-27
2024/01/29 07:56:53;;;;;;;2.13;0.82;;;;;;;12.63;25.86;98109.28;5053015;28;20017;-28
2024/01/29 07:59:19;;;;;;;2.47;0.90;;;;;;;12.54;26.12;98112.47;5053286;28;20033;-27
2024/01/29 08:01:44;;;;;;;2.00;1.00;;;;;;;12.67;26.43;98113.56;5062569;28;20037;-28
2024/01/29 08:04:11;;;;;;;2.65;0.95;;;;;;;12.56;26.45;98110.13;5058006;28;20017;-27
2024/01/29 08:06:36;;;;;;;1.98;0.90;;;;;;;12.43;26.88;98107.09;5060477;28;20032;-27
2024/01/29 08:09:04;;;;;;;1.40;0.88;;;;;;;12.61;27.10;98106.97;5053024;28;20376;-28
2024/01/29 08:11:30;;;;;;;3.05;1.33;;;;;;;12.70;27.24;98104.59;5053354;28;20025;-27
2024/01/29 08:13:56;;;;;;;3.35;1.65;;;;;;;12.68;27.05;98108.88;5053192;28;20028;-28
2024/01/29 08:16:22;;;;;;;3.33;1.83;;;;;;;12.71;26.69;98110.81;5053012;28;20453;-28
2024/01/29 08:18:47;;;;;;;1.88;1.10;;;;;;;12.79;27.00;98101.41;5053057;28;20021;-27
2024/01/29 08:21:13;;;;;;;1.77;1.20;;;;;;;12.68;26.94;98112.38;5052968;28;20421;-28
2024/01/29 08:23:38;;;;;;;1.33;0.65;;;;;;;12.68;26.60;98106.94;5052756;28;20033;-27
2024/01/29 08:26:04;;;;;;;1.60;0.80;;;;;;;12.84;26.72;98117.34;5052941;28;20032;-27
2024/01/29 08:28:29;;;;;;;1.85;0.90;;;;;;;12.82;26.94;98111.50;5053209;28;20103;-28
2024/01/29 08:30:58;;;;;;;1.10;0.70;;;;;;;12.80;27.47;98119.31;5052805;28;20032;-27
2024/01/29 08:33:24;;;;;;;1.17;0.80;;;;;;;12.85;27.57;98118.88;5052929;28;20013;-27
2024/01/29 08:35:50;;;;;;;1.50;0.95;;;;;;;12.78;27.85;98113.47;5053031;28;20029;-27
2024/01/29 08:38:15;;;;;;;1.42;0.70;;;;;;;12.80;27.56;98113.84;5053089;28;20471;-27
2024/01/29 08:40:41;;;;;;;0.80;0.60;;;;;;;12.99;27.85;98118.75;5056379;28;20036;-27
2024/01/29 08:43:07;;;;;;;1.40;0.60;;;;;;;12.77;27.49;98114.66;5056206;28;20033;-28
2024/01/29 08:45:32;;;;;;;1.00;0.60;;;;;;;12.84;27.61;98115.38;5056400;28;20107;-28
2024/01/29 08:47:58;;;;;;;0.95;0.60;;;;;;;12.92;27.95;98118.81;5055885;28;20107;-27
2024/01/29 08:50:24;;;;;;;1.50;0.77;;;;;;;12.76;28.27;98118.53;5056726;28;20040;-27
2024/01/29 08:52:49;;;;;;;3.30;1.33;;;;;;;12.90;28.27;98118.44;5055922;28;20024;-27
2024/01/29 08:55:15;;;;;;;5.10;2.15;;;;;;;13.09;27.73;98131.53;5056285;28;20503;-27
2024/01/29 08:57:40;;;;;;;7.35;3.00;;;;;;;13.01;27.84;98127.31;5055966;28;20032;-28
2024/01/29 09:00:07;;;;;;;4.00;2.30;;;;;;;13.04;27.80;98129.22;5055675;28;20051;-27
2024/01/29 09:02:33;;;;;;;5.53;2.50;;;;;;;13.11;28.15;98128.38;5055741;28;20045;-29
2024/01/29 09:04:59;;;;;;;4.13;1.60;;;;;;;13.26;28.36;98130.63;5055871;28;20021;-27
2024/01/29 09:07:25;;;;;;;3.25;1.90;;;;;;;13.28;28.47;98130.22;5062845;28;20024;-28
2024/01/29 09:09:50;;;;;;;2.80;1.63;;;;;;;13.12;27.78;98141.63;5057796;28;20029;-27
2024/01/29 09:12:16;;;;;;;2.90;2.05;;;;;;;13.15;28.40;98135.41;5060700;28;20021;-28
2024/01/29 09:14:41;;;;;;;3.00;1.60;;;;;;;13.31;28.13;98140.34;5055941;28;20516;-29
2024/01/29 09:17:07;;;;;;;2.28;1.48;;;;;;;13.32;28.32;98141.88;5052273;28;20480;-28
2024/01/29 09:19:32;;;;;;;4.25;2.13;;;;;;;13.36;28.63;98147.28;5055554;28;20078;-27
2024/01/29 09:21:58;;;;;;;4.53;2.95;;;;;;;13.67;29.00;98148.94;5055668;28;20101;-28
2024/01/29 09:24:24;;;;;;;3.63;2.42;;;;;;;13.81;29.21;98148.81;5055886;28;20024;-28
2024/01/29 09:26:49;;;;;;;4.80;2.13;;;;;;;13.72;28.99;98151.25;5062996;28;20024;-28
2024/01/29 09:29:15;;;;;;;4.18;2.15;;;;;;;13.77;28.82;98158.19;5055447;28;20063;-27
2024/01/29 09:31:45;;;;;;;3.08;2.08;;;;;;;13.95;29.00;98156.84;5055150;28;20025;-28
2024/01/29 09:34:11;;;;;;;2.00;1.70;;;;;;;14.44;28.08;98157.47;5055568;28;20077;-28
2024/01/29 09:36:37;;;;;;;2.65;1.77;;;;;;;14.68;28.06;98156.34;5055289;28;20021;-28
2024/01/29 09:39:02;;;;;;;2.85;1.98;;;;;;;14.91;27.83;98163.06;5055481;28;20024;-29
2024/01/29 09:41:34;;;;;;;4.80;2.80;;;;;;;14.64;26.92;98150.16;5054761;28;20024;-28
2024/01/29 09:44:04;;;;;;;3.78;2.50;;;;;;;15.35;26.86;98154.53;5055481;28;20052;-28
2024/01/29 09:46:33;;;;;;;3.53;2.47;;;;;;;15.69;26.60;98167.28;5062260;28;20025;-28
2024/01/29 09:48:58;;;;;;;3.72;2.35;;;;;;;15.77;26.21;98165.97;5054954;28;20021;-28
2024/01/29 09:51:26;;;;;;;2.80;2.40;;;;;;;15.96;25.95;98159.72;5054626;28;20487;-28
2024/01/29 09:53:54;;;;;;;3.45;2.45;;;;;;;15.79;26.19;98167.09;5055098;28;20103;-28
2024/01/29 09:56:20;;;;;;;3.08;2.10;;;;;;;16.27;25.85;98171.25;5055248;28;20063;-28
2024/01/29 09:58:45;;;;;;;3.63;2.00;;;;;;;15.81;26.64;98177.63;5054736;28;20480;-28
2024/01/29 10:01:14;;;;;;;2.20;1.92;;;;;;;15.71;26.31;98173.09;5054388;28;20025;-31
2024/01/29 10:03:41;;;;;;;3.08;1.90;;;;;;;15.88;26.27;98168.50;5054863;28;20500;-28
2024/01/29 10:06:07;;;;;;;2.13;1.90;;;;;;;16.13;26.44;98175.06;5054483;28;20103;-28
2024/01/29 10:08:33;;;;;;;3.38;1.73;;;;;;;15.89;28.16;98170.06;5055044;28;20167;-28
2024/01/29 10:10:59;;;;;;;1.80;1.50;;;;;;;15.95;27.04;98169.13;5054931;28;20032;-28
2024/01/29 10:13:25;;;;;;;2.85;1.88;;;;;;;15.92;26.94;98170.00;5061477;28;20388;-28
2024/01/29 10:15:54;;;;;;;2.33;1.48;;;;;;;15.79;26.03;98174.53;5054540;28;20029;-28
2024/01/29 10:18:20;;;;;;;1.90;1.15;;;;;;;15.63;27.06;98175.19;5054339;28;20082;-29
2024/01/29 10:20:45;;;;;;;1.55;1.15;;;;;;;15.60;28.40;98169.78;5054590;28;20025;-28
2024/01/29 10:23:11;;;;;;;2.15;1.10;;;;;;;15.32;28.64;98166.31;5053934;28;20036;-29
2024/01/29 10:25:38;;;;;;;3.15;1.40;;;;;;;15.04;28.65;98164.81;5054653;28;20017;-28
2024/01/29 10:28:11;;;;;;;3.03;1.38;;;;;;;15.08;28.79;98156.56;5056089;28;20107;-29
2024/01/29 10:30:37;;;;;;;2.92;1.58;;;;;;;15.09;28.62;98152.63;5058880;28;20021;-28
2024/01/29 10:33:03;;;;;;;3.55;1.65;;;;;;;15.04;28.71;98155.84;5054316;28;20071;-28
2024/01/29 10:35:28;;;;;;;5.25;2.22;;;;;;;14.97;28.68;98155.94;5054033;28;20017;-28
2024/01/29 10:38:01;;;;;;;2.45;1.20;;;;;;;14.78;28.81;98157.38;5054001;28;20033;-28
2024/01/29 10:40:27;;;;;;;3.28;1.70;;;;;;;14.82;29.81;98147.19;5061330;28;20023;-29
2024/01/29 10:42:56;;;;;;;4.60;1.70;;;;;;;14.65;30.15;98140.00;5054447;28;20025;-28
2024/01/29 10:45:22;;;;;;;2.53;1.55;;;;;;;14.67;30.30;98143.09;5054439;28;20087;-28
2024/01/29 10:47:52;;;;;;;4.55;1.90;;;;;;;14.69;30.24;98146.22;5053735;28;20380;-28
2024/01/29 10:50:19;;;;;;;5.32;2.08;;;;;;;14.48;29.42;98146.47;5054023;28;20469;-29
2024/01/29 10:52:47;;;;;;;3.92;2.10;;;;;;;14.63;29.19;98142.38;5053892;28;20045;-28
2024/01/29 10:55:15;;;;;;;4.38;2.03;;;;;;;14.40;29.41;98140.34;5053970;28;20017;-28
2024/01/29 10:57:48;;;;;;;6.05;2.30;;;;;;;14.50;31.05;98139.44;5053892;28;20024;-28
2024/01/29 11:00:17;;;;;;;6.10;2.33;;;;;;;14.54;31.24;98140.16;5053646;28;20032;-28
2024/01/29 11:02:44;;;;;;;4.32;2.10;;;;;;;14.36;31.56;98139.59;5052795;28;20115;-28
2024/01/29 11:05:12;;;;;;;5.10;2.58;;;;;;;14.53;30.31;98137.84;5053448;28;20024;-28
2024/01/29 11:07:40;;;;;;;5.35;2.30;;;;;;;14.44;31.17;98134.84;5053661;28;20529;-29
2024/01/29 11:10:14;;;;;;;4.15;2.40;;;;;;;14.36;31.67;98123.19;5054023;28;20392;-29
2024/01/29 11:12:41;;;;;;;4.60;2.15;;;;;;;14.37;30.96;98124.75;5053911;28;20465;-28
2024/01/29 11:15:07;;;;;;;4.90;2.28;;;;;;;14.49;31.07;98118.00;5043030;28;20034;-28
2024/01/29 11:17:33;;;;;;;2.47;1.48;;;;;;;14.32;31.18;98127.97;5053353;28;20519;-28
2024/01/29 11:20:04;;;;;;;4.35;2.20;;;;;;;14.18;31.25;98122.66;5053629;28;20021;-28
2024/01/29 11:22:40;;;;;;;3.35;1.52;;;;;;;14.23;31.43;98119.47;5053462;28;20021;-28
2024/01/29 11:25:16;;;;;;;5.57;2.90;;;;;;;14.17;30.41;98126.59;5053166;28;20017;-29
2024/01/29 11:27:47;;;;;;;5.85;2.80;;;;;;;14.20;29.33;98114.84;5060239;28;20372;-28
2024/01/29 11:30:18;;;;;;;5.07;2.90;;;;;;;14.25;30.42;98112.44;5054118;28;20051;-28